sensor_id;sensor_type;location;lat;lon;timestamp;P1;durP1;ratioP1;P2;durP2;ratioP2
52186;SDS011;38161;53.020;6.598;2022-12-29T00:02:00;6.87;;;4.90;;
52186;SDS011;38161;53.020;6.598;2022-12-29T00:04:26;6.23;;;5.10;;
52186;SDS011;38161;53.020;6.598;2022-12-29T00:06:52;7.57;;;5.10;;
52186;SDS011;38161;53.020;6.598;2022-12-29T00:09:18;6.22;;;5.07;;
52186;SDS011;38161;53.020;6.598;2022-12-29T00:11:44;6.40;;;5.30;;
52186;SDS011;38161;53.020;6.598;2022-12-29T00:14:10;6.93;;;5.20;;
52186;SDS011;38161;53.020;6.598;2022-12-29T00:16:54;7.22;;;5.63;;
52186;SDS011;38161;53.020;6.598;2022-12-29T00:19:20;7.93;;;5.22;;
52186;SDS011;38161;53.020;6.598;2022-12-29T00:22:05;9.73;;;6.72;;
52186;SDS011;38161;53.020;6.598;2022-12-29T00:24:50;9.05;;;7.10;;
52186;SDS011;38161;53.020;6.598;2022-12-29T00:27:18;7.22;;;6.00;;
52186;SDS011;38161;53.020;6.598;2022-12-29T00:30:07;8.38;;;6.60;;
52186;SDS011;38161;53.020;6.598;2022-12-29T00:32:53;12.32;;;8.77;;
52186;SDS011;38161;53.020;6.598;2022-12-29T00:35:38;8.68;;;5.60;;
52186;SDS011;38161;53.020;6.598;2022-12-29T00:38:08;12.25;;;8.57;;
52186;SDS011;38161;53.020;6.598;2022-12-29T00:40:55;8.77;;;6.68;;
52186;SDS011;38161;53.020;6.598;2022-12-29T00:43:39;8.10;;;5.72;;
52186;SDS011;38161;53.020;6.598;2022-12-29T00:46:23;8.70;;;5.63;;
52186;SDS011;38161;53.020;6.598;2022-12-29T00:48:48;11.37;;;7.07;;
52186;SDS011;38161;53.020;6.598;2022-12-29T00:51:33;8.25;;;6.30;;
52186;SDS011;38161;53.020;6.598;2022-12-29T00:53:58;7.60;;;5.43;;
52186;SDS011;38161;53.020;6.598;2022-12-29T00:56:24;6.97;;;5.37;;
52186;SDS011;38161;53.020;6.598;2022-12-29T00:58:50;10.03;;;6.50;;
52186;SDS011;38161;53.020;6.598;2022-12-29T01:01:16;7.93;;;5.67;;
52186;SDS011;38161;53.020;6.598;2022-12-29T01:03:41;7.73;;;4.90;;
52186;SDS011;38161;53.020;6.598;2022-12-29T01:06:08;9.90;;;5.55;;
52186;SDS011;38161;53.020;6.598;2022-12-29T01:08:35;6.93;;;4.78;;
52186;SDS011;38161;53.020;6.598;2022-12-29T01:11:02;6.25;;;5.05;;
52186;SDS011;38161;53.020;6.598;2022-12-29T01:13:30;7.10;;;5.18;;
52186;SDS011;38161;53.020;6.598;2022-12-29T01:15:56;7.83;;;5.60;;
52186;SDS011;38161;53.020;6.598;2022-12-29T01:18:22;7.32;;;5.70;;
52186;SDS011;38161;53.020;6.598;2022-12-29T01:20:49;6.75;;;4.80;;
52186;SDS011;38161;53.020;6.598;2022-12-29T01:23:15;6.43;;;4.95;;
52186;SDS011;38161;53.020;6.598;2022-12-29T01:25:41;5.72;;;4.30;;
52186;SDS011;38161;53.020;6.598;2022-12-29T01:28:07;7.93;;;5.60;;
52186;SDS011;38161;53.020;6.598;2022-12-29T01:30:36;8.38;;;5.63;;
52186;SDS011;38161;53.020;6.598;2022-12-29T01:33:02;6.32;;;4.90;;
52186;SDS011;38161;53.020;6.598;2022-12-29T01:35:28;6.45;;;4.88;;
52186;SDS011;38161;53.020;6.598;2022-12-29T01:37:54;6.72;;;4.05;;
52186;SDS011;38161;53.020;6.598;2022-12-29T01:40:19;6.43;;;5.03;;
52186;SDS011;38161;53.020;6.598;2022-12-29T01:42:45;6.83;;;4.53;;
52186;SDS011;38161;53.020;6.598;2022-12-29T01:45:12;6.37;;;4.60;;
52186;SDS011;38161;53.020;6.598;2022-12-29T01:50:24;5.90;;;3.92;;
52186;SDS011;38161;53.020;6.598;2022-12-29T01:52:59;6.35;;;4.30;;
52186;SDS011;38161;53.020;6.598;2022-12-29T01:55:32;6.05;;;4.07;;
52186;SDS011;38161;53.020;6.598;2022-12-29T01:58:02;4.97;;;3.60;;
52186;SDS011;38161;53.020;6.598;2022-12-29T02:00:31;7.03;;;3.80;;
52186;SDS011;38161;53.020;6.598;2022-12-29T02:02:57;5.22;;;3.63;;
52186;SDS011;38161;53.020;6.598;2022-12-29T02:07:58;6.82;;;3.78;;
52186;SDS011;38161;53.020;6.598;2022-12-29T02:10:26;6.97;;;3.70;;
52186;SDS011;38161;53.020;6.598;2022-12-29T02:12:55;6.60;;;3.50;;
52186;SDS011;38161;53.020;6.598;2022-12-29T02:15:34;5.75;;;3.90;;
52186;SDS011;38161;53.020;6.598;2022-12-29T02:21:08;5.53;;;3.50;;
52186;SDS011;38161;53.020;6.598;2022-12-29T02:32:01;5.88;;;3.58;;
52186;SDS011;38161;53.020;6.598;2022-12-29T02:37:16;5.07;;;3.20;;
52186;SDS011;38161;53.020;6.598;2022-12-29T02:40:04;6.25;;;3.22;;
52186;SDS011;38161;53.020;6.598;2022-12-29T02:47:47;5.17;;;3.30;;
52186;SDS011;38161;53.020;6.598;2022-12-29T02:52:48;4.80;;;2.93;;
52186;SDS011;38161;53.020;6.598;2022-12-29T02:55:18;5.03;;;3.30;;
52186;SDS011;38161;53.020;6.598;2022-12-29T02:57:43;5.03;;;2.87;;
52186;SDS011;38161;53.020;6.598;2022-12-29T03:00:13;4.60;;;2.85;;
52186;SDS011;38161;53.020;6.598;2022-12-29T03:02:46;5.20;;;2.83;;
52186;SDS011;38161;53.020;6.598;2022-12-29T03:10:34;3.50;;;2.33;;
52186;SDS011;38161;53.020;6.598;2022-12-29T03:16:53;4.22;;;2.20;;
52186;SDS011;38161;53.020;6.598;2022-12-29T03:24:52;3.97;;;2.22;;
52186;SDS011;38161;53.020;6.598;2022-12-29T03:27:23;3.35;;;2.00;;
52186;SDS011;38161;53.020;6.598;2022-12-29T03:30:04;2.90;;;1.77;;
52186;SDS011;38161;53.020;6.598;2022-12-29T03:32:32;3.22;;;1.90;;
52186;SDS011;38161;53.020;6.598;2022-12-29T03:35:03;3.70;;;1.90;;
52186;SDS011;38161;53.020;6.598;2022-12-29T03:37:32;2.45;;;1.85;;
52186;SDS011;38161;53.020;6.598;2022-12-29T03:40:05;5.20;;;2.40;;
52186;SDS011;38161;53.020;6.598;2022-12-29T03:42:32;3.50;;;1.85;;
52186;SDS011;38161;53.020;6.598;2022-12-29T03:45:00;3.90;;;1.88;;
52186;SDS011;38161;53.020;6.598;2022-12-29T03:47:26;3.97;;;2.13;;
52186;SDS011;38161;53.020;6.598;2022-12-29T03:49:52;3.43;;;2.10;;
52186;SDS011;38161;53.020;6.598;2022-12-29T03:52:18;5.55;;;2.10;;
52186;SDS011;38161;53.020;6.598;2022-12-29T03:54:44;2.90;;;1.90;;
52186;SDS011;38161;53.020;6.598;2022-12-29T03:57:10;5.18;;;2.30;;
52186;SDS011;38161;53.020;6.598;2022-12-29T03:59:36;3.42;;;1.77;;
52186;SDS011;38161;53.020;6.598;2022-12-29T04:02:02;4.17;;;2.10;;
52186;SDS011;38161;53.020;6.598;2022-12-29T04:04:27;5.20;;;1.90;;
52186;SDS011;38161;53.020;6.598;2022-12-29T04:06:53;4.72;;;2.45;;
52186;SDS011;38161;53.020;6.598;2022-12-29T04:09:19;2.83;;;1.70;;
52186;SDS011;38161;53.020;6.598;2022-12-29T04:11:45;5.47;;;2.07;;
52186;SDS011;38161;53.020;6.598;2022-12-29T04:14:10;4.10;;;1.63;;
52186;SDS011;38161;53.020;6.598;2022-12-29T04:16:36;2.83;;;1.73;;
52186;SDS011;38161;53.020;6.598;2022-12-29T04:19:04;8.25;;;1.95;;
52186;SDS011;38161;53.020;6.598;2022-12-29T04:21:32;4.82;;;1.70;;
52186;SDS011;38161;53.020;6.598;2022-12-29T04:23:58;4.53;;;1.60;;
52186;SDS011;38161;53.020;6.598;2022-12-29T04:26:24;5.00;;;1.70;;
52186;SDS011;38161;53.020;6.598;2022-12-29T04:28:50;4.97;;;1.70;;
52186;SDS011;38161;53.020;6.598;2022-12-29T04:31:16;4.82;;;1.70;;
52186;SDS011;38161;53.020;6.598;2022-12-29T04:33:42;6.13;;;1.90;;
52186;SDS011;38161;53.020;6.598;2022-12-29T04:36:08;4.33;;;1.57;;
52186;SDS011;38161;53.020;6.598;2022-12-29T04:38:34;4.13;;;1.40;;
52186;SDS011;38161;53.020;6.598;2022-12-29T04:41:00;4.75;;;1.23;;
52186;SDS011;38161;53.020;6.598;2022-12-29T04:45:52;5.60;;;1.13;;
52186;SDS011;38161;53.020;6.598;2022-12-29T04:48:18;5.57;;;0.97;;
52186;SDS011;38161;53.020;6.598;2022-12-29T04:50:46;3.00;;;1.13;;
52186;SDS011;38161;53.020;6.598;2022-12-29T04:53:13;5.55;;;1.33;;
52186;SDS011;38161;53.020;6.598;2022-12-29T04:55:39;6.80;;;1.40;;
52186;SDS011;38161;53.020;6.598;2022-12-29T04:58:05;3.10;;;1.08;;
52186;SDS011;38161;53.020;6.598;2022-12-29T05:00:31;4.27;;;1.40;;
52186;SDS011;38161;53.020;6.598;2022-12-29T05:02:56;7.00;;;1.70;;
52186;SDS011;38161;53.020;6.598;2022-12-29T05:05:22;2.95;;;1.30;;
52186;SDS011;38161;53.020;6.598;2022-12-29T05:07:48;4.43;;;1.73;;
52186;SDS011;38161;53.020;6.598;2022-12-29T05:10:14;5.07;;;1.53;;
52186;SDS011;38161;53.020;6.598;2022-12-29T05:12:40;10.23;;;2.00;;
52186;SDS011;38161;53.020;6.598;2022-12-29T05:15:06;11.83;;;1.90;;
52186;SDS011;38161;53.020;6.598;2022-12-29T05:17:32;6.60;;;1.40;;
52186;SDS011;38161;53.020;6.598;2022-12-29T05:19:58;6.20;;;1.83;;
52186;SDS011;38161;53.020;6.598;2022-12-29T05:22:24;8.10;;;1.50;;
52186;SDS011;38161;53.020;6.598;2022-12-29T05:24:50;4.95;;;1.50;;
52186;SDS011;38161;53.020;6.598;2022-12-29T05:27:16;8.70;;;1.83;;
52186;SDS011;38161;53.020;6.598;2022-12-29T05:29:42;5.95;;;2.03;;
52186;SDS011;38161;53.020;6.598;2022-12-29T05:32:07;8.40;;;1.80;;
52186;SDS011;38161;53.020;6.598;2022-12-29T05:34:33;9.30;;;2.17;;
52186;SDS011;38161;53.020;6.598;2022-12-29T05:36:59;8.50;;;1.53;;
52186;SDS011;38161;53.020;6.598;2022-12-29T05:39:24;5.70;;;1.55;;
52186;SDS011;38161;53.020;6.598;2022-12-29T05:41:50;7.80;;;1.80;;
52186;SDS011;38161;53.020;6.598;2022-12-29T05:44:16;10.07;;;2.47;;
52186;SDS011;38161;53.020;6.598;2022-12-29T05:46:41;8.00;;;2.00;;
52186;SDS011;38161;53.020;6.598;2022-12-29T05:49:07;8.37;;;1.57;;
52186;SDS011;38161;53.020;6.598;2022-12-29T05:51:33;11.70;;;1.53;;
52186;SDS011;38161;53.020;6.598;2022-12-29T05:53:59;10.10;;;2.00;;
52186;SDS011;38161;53.020;6.598;2022-12-29T05:56:24;7.60;;;1.63;;
52186;SDS011;38161;53.020;6.598;2022-12-29T05:58:50;13.37;;;1.83;;
52186;SDS011;38161;53.020;6.598;2022-12-29T06:01:16;8.97;;;2.13;;
52186;SDS011;38161;53.020;6.598;2022-12-29T06:03:41;9.83;;;1.73;;
52186;SDS011;38161;53.020;6.598;2022-12-29T06:06:07;4.97;;;1.40;;
52186;SDS011;38161;53.020;6.598;2022-12-29T06:08:33;9.17;;;2.00;;
52186;SDS011;38161;53.020;6.598;2022-12-29T06:10:59;6.53;;;1.40;;
52186;SDS011;38161;53.020;6.598;2022-12-29T06:13:25;9.10;;;1.70;;
52186;SDS011;38161;53.020;6.598;2022-12-29T06:15:50;4.30;;;1.50;;
52186;SDS011;38161;53.020;6.598;2022-12-29T06:18:16;8.02;;;1.77;;
52186;SDS011;38161;53.020;6.598;2022-12-29T06:20:42;6.55;;;1.75;;
52186;SDS011;38161;53.020;6.598;2022-12-29T06:23:08;6.30;;;2.03;;
52186;SDS011;38161;53.020;6.598;2022-12-29T06:25:34;8.80;;;1.87;;
52186;SDS011;38161;53.020;6.598;2022-12-29T06:28:01;4.22;;;1.67;;
52186;SDS011;38161;53.020;6.598;2022-12-29T06:30:28;8.15;;;1.80;;
52186;SDS011;38161;53.020;6.598;2022-12-29T06:32:54;7.97;;;1.88;;
52186;SDS011;38161;53.020;6.598;2022-12-29T06:35:20;8.10;;;2.10;;
52186;SDS011;38161;53.020;6.598;2022-12-29T06:37:47;9.65;;;1.58;;
52186;SDS011;38161;53.020;6.598;2022-12-29T06:40:13;9.07;;;2.10;;
52186;SDS011;38161;53.020;6.598;2022-12-29T06:42:39;14.15;;;2.13;;
52186;SDS011;38161;53.020;6.598;2022-12-29T06:45:05;11.23;;;1.80;;
52186;SDS011;38161;53.020;6.598;2022-12-29T06:49:58;10.60;;;2.20;;
52186;SDS011;38161;53.020;6.598;2022-12-29T06:52:24;13.50;;;2.00;;
52186;SDS011;38161;53.020;6.598;2022-12-29T06:54:50;9.97;;;2.27;;
52186;SDS011;38161;53.020;6.598;2022-12-29T06:57:15;10.23;;;2.27;;
52186;SDS011;38161;53.020;6.598;2022-12-29T06:59:41;14.83;;;2.20;;
52186;SDS011;38161;53.020;6.598;2022-12-29T07:02:08;10.83;;;1.97;;
52186;SDS011;38161;53.020;6.598;2022-12-29T07:04:36;9.60;;;2.00;;
52186;SDS011;38161;53.020;6.598;2022-12-29T07:07:01;9.93;;;2.05;;
52186;SDS011;38161;53.020;6.598;2022-12-29T07:09:30;12.52;;;1.83;;
52186;SDS011;38161;53.020;6.598;2022-12-29T07:11:55;12.38;;;2.13;;
52186;SDS011;38161;53.020;6.598;2022-12-29T07:14:22;11.82;;;1.90;;
52186;SDS011;38161;53.020;6.598;2022-12-29T07:16:48;10.97;;;2.07;;
52186;SDS011;38161;53.020;6.598;2022-12-29T07:19:13;9.67;;;1.63;;
52186;SDS011;38161;53.020;6.598;2022-12-29T07:21:39;10.65;;;2.60;;
52186;SDS011;38161;53.020;6.598;2022-12-29T07:24:05;11.43;;;2.23;;
52186;SDS011;38161;53.020;6.598;2022-12-29T07:26:31;10.98;;;2.00;;
52186;SDS011;38161;53.020;6.598;2022-12-29T07:28:57;8.40;;;1.70;;
52186;SDS011;38161;53.020;6.598;2022-12-29T07:31:22;13.60;;;3.23;;
52186;SDS011;38161;53.020;6.598;2022-12-29T07:33:48;10.93;;;2.38;;
52186;SDS011;38161;53.020;6.598;2022-12-29T07:36:14;10.63;;;2.47;;
52186;SDS011;38161;53.020;6.598;2022-12-29T07:41:07;11.05;;;2.00;;
52186;SDS011;38161;53.020;6.598;2022-12-29T07:43:33;10.00;;;2.15;;
52186;SDS011;38161;53.020;6.598;2022-12-29T07:45:58;12.35;;;2.50;;
52186;SDS011;38161;53.020;6.598;2022-12-29T07:48:24;9.93;;;2.50;;
52186;SDS011;38161;53.020;6.598;2022-12-29T07:50:50;9.27;;;2.42;;
52186;SDS011;38161;53.020;6.598;2022-12-29T07:53:17;17.85;;;3.15;;
52186;SDS011;38161;53.020;6.598;2022-12-29T07:55:43;12.00;;;2.28;;
52186;SDS011;38161;53.020;6.598;2022-12-29T07:58:09;10.17;;;2.20;;
52186;SDS011;38161;53.020;6.598;2022-12-29T08:00:35;8.32;;;1.77;;
52186;SDS011;38161;53.020;6.598;2022-12-29T08:03:01;7.70;;;2.22;;
52186;SDS011;38161;53.020;6.598;2022-12-29T08:05:27;12.87;;;2.17;;
52186;SDS011;38161;53.020;6.598;2022-12-29T08:07:52;12.52;;;2.20;;
52186;SDS011;38161;53.020;6.598;2022-12-29T08:10:18;12.67;;;1.90;;
52186;SDS011;38161;53.020;6.598;2022-12-29T08:12:44;12.67;;;2.00;;
52186;SDS011;38161;53.020;6.598;2022-12-29T08:15:11;13.63;;;2.40;;
52186;SDS011;38161;53.020;6.598;2022-12-29T08:17:37;11.77;;;2.20;;
52186;SDS011;38161;53.020;6.598;2022-12-29T08:20:03;11.93;;;2.67;;
52186;SDS011;38161;53.020;6.598;2022-12-29T08:24:55;10.07;;;2.67;;
52186;SDS011;38161;53.020;6.598;2022-12-29T08:27:21;14.60;;;3.30;;
52186;SDS011;38161;53.020;6.598;2022-12-29T08:29:47;14.47;;;3.00;;
52186;SDS011;38161;53.020;6.598;2022-12-29T08:32:13;16.08;;;3.83;;
52186;SDS011;38161;53.020;6.598;2022-12-29T08:34:38;14.57;;;2.93;;
52186;SDS011;38161;53.020;6.598;2022-12-29T08:37:04;15.03;;;2.43;;
52186;SDS011;38161;53.020;6.598;2022-12-29T08:39:30;14.45;;;2.40;;
52186;SDS011;38161;53.020;6.598;2022-12-29T08:41:56;14.80;;;3.00;;
52186;SDS011;38161;53.020;6.598;2022-12-29T08:44:21;17.73;;;2.53;;
52186;SDS011;38161;53.020;6.598;2022-12-29T08:46:47;15.27;;;2.50;;
52186;SDS011;38161;53.020;6.598;2022-12-29T08:49:13;15.27;;;3.20;;
52186;SDS011;38161;53.020;6.598;2022-12-29T08:51:39;16.20;;;2.95;;
52186;SDS011;38161;53.020;6.598;2022-12-29T08:54:05;21.17;;;2.90;;
52186;SDS011;38161;53.020;6.598;2022-12-29T08:56:31;17.07;;;3.03;;
52186;SDS011;38161;53.020;6.598;2022-12-29T08:58:57;14.70;;;2.78;;
52186;SDS011;38161;53.020;6.598;2022-12-29T09:01:23;12.45;;;2.50;;
52186;SDS011;38161;53.020;6.598;2022-12-29T09:03:48;11.82;;;3.47;;
52186;SDS011;38161;53.020;6.598;2022-12-29T09:06:15;15.63;;;3.42;;
52186;SDS011;38161;53.020;6.598;2022-12-29T09:08:42;17.70;;;2.55;;
52186;SDS011;38161;53.020;6.598;2022-12-29T09:11:09;7.43;;;2.22;;
52186;SDS011;38161;53.020;6.598;2022-12-29T09:13:35;14.55;;;2.97;;
52186;SDS011;38161;53.020;6.598;2022-12-29T09:16:01;12.43;;;2.47;;
52186;SDS011;38161;53.020;6.598;2022-12-29T09:18:28;12.50;;;2.78;;
52186;SDS011;38161;53.020;6.598;2022-12-29T09:20:57;8.73;;;2.80;;
52186;SDS011;38161;53.020;6.598;2022-12-29T09:23:25;13.90;;;3.25;;
52186;SDS011;38161;53.020;6.598;2022-12-29T09:25:51;14.70;;;2.03;;
52186;SDS011;38161;53.020;6.598;2022-12-29T09:28:18;14.38;;;2.65;;
52186;SDS011;38161;53.020;6.598;2022-12-29T09:30:43;11.48;;;2.40;;
52186;SDS011;38161;53.020;6.598;2022-12-29T09:33:09;12.77;;;2.03;;
52186;SDS011;38161;53.020;6.598;2022-12-29T09:35:35;13.03;;;2.67;;
52186;SDS011;38161;53.020;6.598;2022-12-29T09:38:01;11.80;;;2.55;;
52186;SDS011;38161;53.020;6.598;2022-12-29T09:40:28;15.73;;;3.05;;
52186;SDS011;38161;53.020;6.598;2022-12-29T09:46:02;13.52;;;2.42;;
52186;SDS011;38161;53.020;6.598;2022-12-29T09:48:37;16.20;;;2.65;;
52186;SDS011;38161;53.020;6.598;2022-12-29T09:51:13;12.60;;;2.30;;
52186;SDS011;38161;53.020;6.598;2022-12-29T09:54:10;12.00;;;2.38;;
52186;SDS011;38161;53.020;6.598;2022-12-29T09:56:45;11.48;;;2.33;;
52186;SDS011;38161;53.020;6.598;2022-12-29T09:59:16;16.00;;;2.35;;
52186;SDS011;38161;53.020;6.598;2022-12-29T10:01:51;14.73;;;2.90;;
52186;SDS011;38161;53.020;6.598;2022-12-29T10:04:21;9.27;;;2.00;;
52186;SDS011;38161;53.020;6.598;2022-12-29T10:06:51;11.73;;;2.87;;
52186;SDS011;38161;53.020;6.598;2022-12-29T10:12:04;13.32;;;2.38;;
52186;SDS011;38161;53.020;6.598;2022-12-29T10:25:37;19.17;;;2.75;;
52186;SDS011;38161;53.020;6.598;2022-12-29T10:28:33;14.27;;;2.33;;
52186;SDS011;38161;53.020;6.598;2022-12-29T10:31:01;10.48;;;2.33;;
52186;SDS011;38161;53.020;6.598;2022-12-29T10:33:44;13.27;;;2.65;;
52186;SDS011;38161;53.020;6.598;2022-12-29T10:36:27;13.30;;;2.70;;
52186;SDS011;38161;53.020;6.598;2022-12-29T10:39:13;11.35;;;2.67;;
52186;SDS011;38161;53.020;6.598;2022-12-29T10:41:42;13.97;;;2.03;;
52186;SDS011;38161;53.020;6.598;2022-12-29T10:44:14;12.70;;;2.42;;
52186;SDS011;38161;53.020;6.598;2022-12-29T10:46:42;15.00;;;2.42;;
52186;SDS011;38161;53.020;6.598;2022-12-29T10:49:14;11.82;;;2.63;;
52186;SDS011;38161;53.020;6.598;2022-12-29T10:51:42;15.27;;;3.10;;
52186;SDS011;38161;53.020;6.598;2022-12-29T10:54:14;15.60;;;3.13;;
52186;SDS011;38161;53.020;6.598;2022-12-29T10:57:00;12.93;;;2.92;;
52186;SDS011;38161;53.020;6.598;2022-12-29T10:59:31;9.60;;;2.60;;
52186;SDS011;38161;53.020;6.598;2022-12-29T11:07:15;12.68;;;2.70;;
52186;SDS011;38161;53.020;6.598;2022-12-29T11:09:43;12.23;;;2.42;;
52186;SDS011;38161;53.020;6.598;2022-12-29T11:14:45;11.57;;;2.45;;
52186;SDS011;38161;53.020;6.598;2022-12-29T11:17:14;7.70;;;2.17;;
52186;SDS011;38161;53.020;6.598;2022-12-29T11:19:42;9.80;;;2.45;;
52186;SDS011;38161;53.020;6.598;2022-12-29T11:22:12;10.70;;;2.10;;
52186;SDS011;38161;53.020;6.598;2022-12-29T11:24:50;10.63;;;3.05;;
52186;SDS011;38161;53.020;6.598;2022-12-29T11:27:19;9.65;;;2.17;;
52186;SDS011;38161;53.020;6.598;2022-12-29T11:29:48;16.77;;;3.10;;
52186;SDS011;38161;53.020;6.598;2022-12-29T11:34:44;12.83;;;3.60;;
52186;SDS011;38161;53.020;6.598;2022-12-29T11:37:14;13.85;;;3.30;;
52186;SDS011;38161;53.020;6.598;2022-12-29T11:40:05;17.05;;;3.72;;
52186;SDS011;38161;53.020;6.598;2022-12-29T11:42:41;12.27;;;3.17;;
52186;SDS011;38161;53.020;6.598;2022-12-29T11:45:23;17.02;;;2.78;;
52186;SDS011;38161;53.020;6.598;2022-12-29T11:47:58;18.73;;;3.80;;
52186;SDS011;38161;53.020;6.598;2022-12-29T11:50:48;12.52;;;3.17;;
52186;SDS011;38161;53.020;6.598;2022-12-29T11:53:20;15.95;;;2.97;;
52186;SDS011;38161;53.020;6.598;2022-12-29T11:58:29;17.75;;;3.55;;
52186;SDS011;38161;53.020;6.598;2022-12-29T12:00:58;23.05;;;3.78;;
52186;SDS011;38161;53.020;6.598;2022-12-29T12:03:28;16.70;;;3.40;;
52186;SDS011;38161;53.020;6.598;2022-12-29T12:06:03;15.98;;;3.58;;
52186;SDS011;38161;53.020;6.598;2022-12-29T12:11:30;17.75;;;3.35;;
52186;SDS011;38161;53.020;6.598;2022-12-29T12:16:36;22.85;;;3.83;;
52186;SDS011;38161;53.020;6.598;2022-12-29T12:21:52;18.23;;;3.58;;
52186;SDS011;38161;53.020;6.598;2022-12-29T12:32:27;22.17;;;4.03;;
52186;SDS011;38161;53.020;6.598;2022-12-29T12:43:55;24.70;;;3.65;;
52186;SDS011;38161;53.020;6.598;2022-12-29T12:55:36;19.42;;;3.10;;
52186;SDS011;38161;53.020;6.598;2022-12-29T13:01:10;18.35;;;3.00;;
52186;SDS011;38161;53.020;6.598;2022-12-29T13:07:09;13.35;;;2.83;;
52186;SDS011;38161;53.020;6.598;2022-12-29T13:10:00;15.10;;;3.30;;
52186;SDS011;38161;53.020;6.598;2022-12-29T13:12:46;13.77;;;2.65;;
52186;SDS011;38161;53.020;6.598;2022-12-29T13:15:46;13.57;;;3.08;;
52186;SDS011;38161;53.020;6.598;2022-12-29T13:18:22;11.55;;;2.70;;
52186;SDS011;38161;53.020;6.598;2022-12-29T13:23:31;17.92;;;3.40;;
52186;SDS011;38161;53.020;6.598;2022-12-29T13:26:08;16.70;;;2.50;;
52186;SDS011;38161;53.020;6.598;2022-12-29T13:37:02;14.10;;;3.53;;
52186;SDS011;38161;53.020;6.598;2022-12-29T13:39:36;10.60;;;2.65;;
52186;SDS011;38161;53.020;6.598;2022-12-29T13:42:05;14.05;;;2.90;;
52186;SDS011;38161;53.020;6.598;2022-12-29T13:44:34;9.70;;;2.17;;
52186;SDS011;38161;53.020;6.598;2022-12-29T13:50:35;12.93;;;2.22;;
52186;SDS011;38161;53.020;6.598;2022-12-29T13:55:46;16.80;;;2.55;;
52186;SDS011;38161;53.020;6.598;2022-12-29T14:02:03;12.30;;;2.28;;
52186;SDS011;38161;53.020;6.598;2022-12-29T14:04:25;14.30;;;2.88;;
52186;SDS011;38161;53.020;6.598;2022-12-29T14:06:58;13.43;;;2.40;;
52186;SDS011;38161;53.020;6.598;2022-12-29T14:12:01;15.65;;;2.85;;
52186;SDS011;38161;53.020;6.598;2022-12-29T14:14:43;12.77;;;3.38;;
52186;SDS011;38161;53.020;6.598;2022-12-29T14:17:09;17.37;;;3.37;;
52186;SDS011;38161;53.020;6.598;2022-12-29T14:19:38;14.10;;;2.92;;
52186;SDS011;38161;53.020;6.598;2022-12-29T14:22:07;13.02;;;2.58;;
52186;SDS011;38161;53.020;6.598;2022-12-29T14:34:49;12.88;;;2.50;;
52186;SDS011;38161;53.020;6.598;2022-12-29T14:37:35;12.30;;;2.47;;
52186;SDS011;38161;53.020;6.598;2022-12-29T14:42:51;13.98;;;2.08;;
52186;SDS011;38161;53.020;6.598;2022-12-29T14:47:45;12.33;;;2.50;;
52186;SDS011;38161;53.020;6.598;2022-12-29T14:50:16;15.50;;;2.90;;
52186;SDS011;38161;53.020;6.598;2022-12-29T14:58:04;24.10;;;10.23;;
52186;SDS011;38161;53.020;6.598;2022-12-29T15:00:34;53.17;;;28.70;;
52186;SDS011;38161;53.020;6.598;2022-12-29T15:05:49;17.65;;;5.45;;
52186;SDS011;38161;53.020;6.598;2022-12-29T15:09:06;12.90;;;4.95;;
52186;SDS011;38161;53.020;6.598;2022-12-29T15:14:02;14.00;;;4.53;;
52186;SDS011;38161;53.020;6.598;2022-12-29T15:16:29;13.97;;;3.17;;
52186;SDS011;38161;53.020;6.598;2022-12-29T15:19:01;22.15;;;3.72;;
52186;SDS011;38161;53.020;6.598;2022-12-29T15:21:33;13.80;;;4.28;;
52186;SDS011;38161;53.020;6.598;2022-12-29T15:24:00;12.80;;;5.60;;
52186;SDS011;38161;53.020;6.598;2022-12-29T15:26:38;16.63;;;4.47;;
52186;SDS011;38161;53.020;6.598;2022-12-29T15:29:05;12.65;;;4.25;;
52186;SDS011;38161;53.020;6.598;2022-12-29T15:31:50;18.55;;;3.95;;
52186;SDS011;38161;53.020;6.598;2022-12-29T15:34:20;15.37;;;3.50;;
52186;SDS011;38161;53.020;6.598;2022-12-29T15:36:46;13.50;;;4.15;;
52186;SDS011;38161;53.020;6.598;2022-12-29T15:39:27;24.25;;;13.30;;
52186;SDS011;38161;53.020;6.598;2022-12-29T15:41:55;16.40;;;5.43;;
52186;SDS011;38161;53.020;6.598;2022-12-29T15:44:26;10.00;;;4.75;;
52186;SDS011;38161;53.020;6.598;2022-12-29T15:46:57;16.05;;;4.82;;
52186;SDS011;38161;53.020;6.598;2022-12-29T15:49:30;13.65;;;3.35;;
52186;SDS011;38161;53.020;6.598;2022-12-29T15:51:57;9.05;;;2.80;;
52186;SDS011;38161;53.020;6.598;2022-12-29T15:54:22;11.90;;;2.97;;
52186;SDS011;38161;53.020;6.598;2022-12-29T15:56:56;12.88;;;4.00;;
52186;SDS011;38161;53.020;6.598;2022-12-29T15:59:23;15.17;;;3.40;;
52186;SDS011;38161;53.020;6.598;2022-12-29T16:01:51;12.18;;;3.38;;
52186;SDS011;38161;53.020;6.598;2022-12-29T16:04:18;12.25;;;3.13;;
52186;SDS011;38161;53.020;6.598;2022-12-29T16:06:45;11.57;;;3.03;;
52186;SDS011;38161;53.020;6.598;2022-12-29T16:09:30;10.63;;;3.65;;
52186;SDS011;38161;53.020;6.598;2022-12-29T16:12:02;13.23;;;3.25;;
52186;SDS011;38161;53.020;6.598;2022-12-29T16:17:09;17.80;;;4.35;;
52186;SDS011;38161;53.020;6.598;2022-12-29T16:19:41;11.10;;;3.42;;
52186;SDS011;38161;53.020;6.598;2022-12-29T16:22:47;14.60;;;2.78;;
52186;SDS011;38161;53.020;6.598;2022-12-29T16:25:10;18.08;;;4.00;;
52186;SDS011;38161;53.020;6.598;2022-12-29T16:27:49;12.43;;;2.55;;
52186;SDS011;38161;53.020;6.598;2022-12-29T16:32:48;14.45;;;2.95;;
52186;SDS011;38161;53.020;6.598;2022-12-29T16:35:20;12.82;;;2.78;;
52186;SDS011;38161;53.020;6.598;2022-12-29T16:38:12;15.18;;;3.50;;
52186;SDS011;38161;53.020;6.598;2022-12-29T16:40:52;11.63;;;2.58;;
52186;SDS011;38161;53.020;6.598;2022-12-29T16:43:26;10.95;;;3.00;;
52186;SDS011;38161;53.020;6.598;2022-12-29T16:46:11;13.30;;;3.58;;
52186;SDS011;38161;53.020;6.598;2022-12-29T16:48:47;21.35;;;12.77;;
52186;SDS011;38161;53.020;6.598;2022-12-29T16:51:32;14.20;;;5.53;;
52186;SDS011;38161;53.020;6.598;2022-12-29T16:54:02;16.35;;;7.25;;
52186;SDS011;38161;53.020;6.598;2022-12-29T17:01:28;6.45;;;3.28;;
52186;SDS011;38161;53.020;6.598;2022-12-29T17:03:56;6.10;;;2.35;;
52186;SDS011;38161;53.020;6.598;2022-12-29T17:06:25;5.18;;;2.92;;
52186;SDS011;38161;53.020;6.598;2022-12-29T17:08:51;8.17;;;3.57;;
52186;SDS011;38161;53.020;6.598;2022-12-29T17:17:16;15.82;;;9.85;;
52186;SDS011;38161;53.020;6.598;2022-12-29T17:19:46;11.73;;;3.75;;
52186;SDS011;38161;53.020;6.598;2022-12-29T17:22:18;20.60;;;13.00;;
52186;SDS011;38161;53.020;6.598;2022-12-29T17:24:46;17.42;;;9.13;;
52186;SDS011;38161;53.020;6.598;2022-12-29T17:27:17;15.60;;;3.93;;
52186;SDS011;38161;53.020;6.598;2022-12-29T17:30:15;9.40;;;4.13;;
52186;SDS011;38161;53.020;6.598;2022-12-29T17:32:46;13.05;;;5.00;;
52186;SDS011;38161;53.020;6.598;2022-12-29T17:35:17;18.45;;;6.90;;
52186;SDS011;38161;53.020;6.598;2022-12-29T17:37:44;13.65;;;5.68;;
52186;SDS011;38161;53.020;6.598;2022-12-29T17:40:14;12.90;;;6.47;;
52186;SDS011;38161;53.020;6.598;2022-12-29T17:42:45;13.68;;;7.13;;
52186;SDS011;38161;53.020;6.598;2022-12-29T17:45:17;9.27;;;4.13;;
52186;SDS011;38161;53.020;6.598;2022-12-29T17:47:53;7.65;;;3.42;;
52186;SDS011;38161;53.020;6.598;2022-12-29T17:50:21;8.20;;;3.20;;
52186;SDS011;38161;53.020;6.598;2022-12-29T17:52:56;7.38;;;2.95;;
52186;SDS011;38161;53.020;6.598;2022-12-29T17:55:24;14.82;;;4.40;;
52186;SDS011;38161;53.020;6.598;2022-12-29T17:57:50;12.43;;;4.40;;
52186;SDS011;38161;53.020;6.598;2022-12-29T18:00:21;12.57;;;4.13;;
52186;SDS011;38161;53.020;6.598;2022-12-29T18:02:49;8.68;;;3.70;;
52186;SDS011;38161;53.020;6.598;2022-12-29T18:05:19;10.07;;;3.17;;